createdAt,value
2023-04-13T00:01:45.223Z,23.88
2023-04-13T00:03:50.491Z,23.89
2023-04-13T00:05:55.926Z,23.89
2023-04-13T00:08:01.081Z,23.89
2023-04-13T00:10:06.126Z,23.88
2023-04-13T00:12:11.185Z,23.88
2023-04-13T00:14:16.251Z,23.86
2023-04-13T00:16:21.234Z,23.84
2023-04-13T00:18:26.373Z,23.83
2023-04-13T00:20:31.482Z,23.83
2023-04-13T00:22:36.507Z,23.83
2023-04-13T00:24:41.560Z,23.81
2023-04-13T00:26:46.525Z,23.8
2023-04-13T00:28:51.511Z,23.8
2023-04-13T00:30:56.698Z,23.78
2023-04-13T00:33:01.908Z,23.77
2023-04-13T00:35:07.126Z,23.77
2023-04-13T00:37:12.133Z,23.76
2023-04-13T00:39:17.176Z,23.75
2023-04-13T00:41:22.164Z,23.74
2023-04-13T00:43:27.233Z,23.73
2023-04-13T00:45:32.197Z,23.72
2023-04-13T00:47:37.214Z,23.7
2023-04-13T00:49:42.318Z,23.69
2023-04-13T00:51:47.409Z,23.68
2023-04-13T00:53:52.395Z,23.66
2023-04-13T00:55:57.415Z,23.65
2023-04-13T00:58:02.447Z,23.66
2023-04-13T01:00:07.436Z,23.64
2023-04-13T01:02:12.792Z,23.63
2023-04-13T01:04:18.058Z,23.63
2023-04-13T01:06:23.203Z,23.62
2023-04-13T01:08:28.230Z,23.63
2023-04-13T01:10:33.317Z,23.63
2023-04-13T01:12:38.397Z,23.63
2023-04-13T01:14:43.407Z,23.61
2023-04-13T01:16:48.426Z,23.61
2023-04-13T01:18:53.362Z,23.59
2023-04-13T01:20:58.344Z,23.6
2023-04-13T01:23:03.536Z,23.58
2023-04-13T01:25:08.514Z,23.55
2023-04-13T01:27:13.520Z,23.55
2023-04-13T01:29:18.529Z,23.54
2023-04-13T01:31:23.559Z,23.55
2023-04-13T01:33:28.865Z,23.54
2023-04-13T01:37:16.335Z,23.5
2023-04-13T01:39:21.332Z,23.49
2023-04-13T01:41:26.287Z,23.49
2023-04-13T01:43:31.270Z,23.49
2023-04-13T01:45:36.301Z,23.49
2023-04-13T01:47:41.345Z,23.49
2023-04-13T01:49:46.481Z,23.48
2023-04-13T01:51:51.438Z,23.49
2023-04-13T01:53:56.554Z,23.46
2023-04-13T01:56:02.346Z,23.45
2023-04-13T01:58:07.387Z,23.45
2023-04-13T02:00:12.392Z,23.44
2023-04-13T02:02:17.535Z,23.44
2023-04-13T02:04:22.939Z,23.45
2023-04-13T02:06:28.326Z,23.43
2023-04-13T02:08:33.643Z,23.43
2023-04-13T02:10:38.693Z,23.43
2023-04-13T02:12:43.729Z,23.41
2023-04-13T02:14:48.908Z,23.41
2023-04-13T02:16:54.370Z,23.4
2023-04-13T02:18:59.469Z,23.38
2023-04-13T02:21:04.571Z,23.37
2023-04-13T02:23:09.571Z,23.37
2023-04-13T02:25:14.687Z,23.37
2023-04-13T02:27:19.713Z,23.38
2023-04-13T02:29:24.772Z,23.38
2023-04-13T02:31:29.856Z,23.37
2023-04-13T02:33:35.032Z,23.36
2023-04-13T02:35:39.996Z,23.36
2023-04-13T02:37:45.020Z,23.35
2023-04-13T02:39:49.981Z,23.34
2023-04-13T02:41:54.982Z,23.34
2023-04-13T02:44:00.221Z,23.34
2023-04-13T02:46:05.916Z,23.33
2023-04-13T02:48:11.056Z,23.32
2023-04-13T02:50:16.089Z,23.31
2023-04-13T02:52:21.098Z,23.29
2023-04-13T02:54:26.076Z,23.26
2023-04-13T02:56:31.097Z,23.25
2023-04-13T02:58:36.180Z,23.25
2023-04-13T03:00:41.129Z,23.24
2023-04-13T03:02:46.425Z,23.24
2023-04-13T03:04:52.125Z,23.23
2023-04-13T03:06:57.361Z,23.23
2023-04-13T03:09:02.447Z,23.22
2023-04-13T03:11:07.570Z,23.21
2023-04-13T03:13:12.565Z,23.2
2023-04-13T03:15:17.517Z,23.2
2023-04-13T03:17:22.505Z,23.17
2023-04-13T03:19:27.649Z,23.16
2023-04-13T03:21:32.719Z,23.16
2023-04-13T03:23:37.721Z,23.15
2023-04-13T03:25:42.680Z,23.15
2023-04-13T03:27:47.660Z,23.15
2023-04-13T03:29:52.702Z,23.15
2023-04-13T03:31:57.682Z,23.15
2023-04-13T03:34:02.670Z,23.15
2023-04-13T03:36:07.760Z,23.12
2023-04-13T03:38:12.720Z,23.13
2023-04-13T03:40:17.725Z,23.13
2023-04-13T03:42:22.723Z,23.11
2023-04-13T03:44:27.683Z,23.1
2023-04-13T03:46:32.677Z,23.12
2023-04-13T03:48:37.878Z,23.1
2023-04-13T03:50:42.852Z,23.11
2023-04-13T03:52:47.906Z,23.09
2023-04-13T03:54:53.122Z,23.1
2023-04-13T03:56:58.337Z,23.09
2023-04-13T03:59:03.362Z,23.1
2023-04-13T04:01:08.390Z,23.09
2023-04-13T04:03:13.561Z,23.09
2023-04-13T04:05:18.962Z,23.09
2023-04-13T04:07:24.377Z,23.09
2023-04-13T04:09:29.416Z,23.08
2023-04-13T04:11:34.446Z,23.08
2023-04-13T04:13:39.441Z,23.06
2023-04-13T04:15:44.511Z,23.06
2023-04-13T04:17:49.544Z,23.07
2023-04-13T04:19:54.757Z,23.07
2023-04-13T04:21:59.748Z,23.05
2023-04-13T04:24:04.722Z,23.04
2023-04-13T04:26:09.811Z,23.04
2023-04-13T04:28:14.773Z,23.03
2023-04-13T04:30:19.771Z,23.03
2023-04-13T04:32:25.053Z,23.03
2023-04-13T04:34:30.212Z,23.03
2023-04-13T04:36:35.377Z,23.03
2023-04-13T04:38:40.369Z,23.01
2023-04-13T04:40:45.401Z,23.01
2023-04-13T04:42:50.408Z,23.01
2023-04-13T04:44:55.398Z,23.03
2023-04-13T04:47:00.470Z,23.05
2023-04-13T04:49:05.515Z,23.05
2023-04-13T04:51:10.605Z,23.05
2023-04-13T04:53:15.587Z,23.04
2023-04-13T04:55:20.576Z,23.05
2023-04-13T04:57:26.563Z,23.05
2023-04-13T04:59:33.601Z,23.04
2023-04-13T05:01:38.700Z,23.05
2023-04-13T05:03:44.134Z,23.05
2023-04-13T05:05:49.110Z,23.04
2023-04-13T05:07:54.109Z,23.04
2023-04-13T05:09:59.071Z,23.05
2023-04-13T05:12:04.112Z,23.05
2023-04-13T05:14:09.097Z,23.08
2023-04-13T05:16:14.126Z,23.16
2023-04-13T05:18:19.310Z,23.24
2023-04-13T05:20:24.283Z,23.33
2023-04-13T05:22:29.290Z,23.4
2023-04-13T05:24:34.289Z,23.48
2023-04-13T05:26:39.266Z,23.55
2023-04-13T05:28:44.281Z,23.6
2023-04-13T05:30:49.267Z,23.65
2023-04-13T05:32:54.273Z,23.71
2023-04-13T05:34:59.427Z,23.75
2023-04-13T05:37:04.594Z,23.77
2023-04-13T05:39:09.593Z,23.84
2023-04-13T05:41:14.571Z,23.9
2023-04-13T05:43:20.178Z,23.94
2023-04-13T05:45:27.715Z,23.98
2023-04-13T05:47:32.865Z,23.96
2023-04-13T05:49:38.088Z,23.96
2023-04-13T05:51:43.081Z,24
2023-04-13T05:53:48.172Z,24.02
2023-04-13T05:55:53.134Z,24.02
2023-04-13T05:57:58.168Z,24.04
2023-04-13T06:00:03.159Z,24.07
2023-04-13T06:02:08.287Z,24.09
2023-04-13T06:04:13.842Z,24.1
2023-04-13T06:06:19.569Z,24.11
2023-04-13T06:08:24.570Z,24.12
2023-04-13T06:10:32.035Z,24.15
2023-04-13T06:12:37.138Z,24.17
2023-04-13T06:14:42.189Z,24.2
2023-04-13T06:16:47.187Z,24.22
2023-04-13T06:18:52.381Z,24.21
2023-04-13T06:20:57.352Z,24.24
2023-04-13T06:23:02.424Z,24.25
2023-04-13T06:25:07.501Z,24.27
2023-04-13T06:27:12.478Z,24.29
2023-04-13T06:29:17.471Z,24.29
2023-04-13T06:31:22.525Z,24.27
2023-04-13T06:33:27.799Z,24.28
2023-04-13T06:35:32.766Z,24.32
2023-04-13T06:37:37.753Z,24.37
2023-04-13T06:39:42.784Z,24.41
2023-04-13T06:41:47.781Z,24.42
2023-04-13T06:43:52.892Z,24.41
2023-04-13T06:45:57.951Z,24.43
2023-04-13T06:48:03.310Z,24.4
2023-04-13T06:50:08.784Z,24.42
2023-04-13T06:52:13.780Z,24.42
2023-04-13T06:54:18.792Z,24.4
2023-04-13T06:56:23.835Z,24.39
2023-04-13T06:58:28.829Z,24.4
2023-04-13T07:00:33.875Z,24.42
2023-04-13T07:02:39.379Z,24.41
2023-04-13T07:04:44.875Z,24.4
2023-04-13T07:06:50.133Z,24.41
2023-04-13T07:08:55.121Z,24.42
2023-04-13T07:11:00.724Z,24.41
2023-04-13T07:13:05.732Z,24.41
2023-04-13T07:15:10.699Z,24.49
2023-04-13T07:17:15.728Z,24.5
2023-04-13T07:19:20.851Z,24.53
2023-04-13T07:21:25.859Z,24.5
2023-04-13T07:23:30.847Z,24.5
2023-04-13T07:25:35.838Z,24.5
2023-04-13T07:27:40.867Z,24.48
2023-04-13T07:29:45.927Z,24.49
2023-04-13T07:31:50.971Z,24.47
2023-04-13T07:33:56.232Z,24.48
2023-04-13T07:36:01.341Z,24.48
2023-04-13T07:38:06.333Z,24.48
2023-04-13T07:40:11.313Z,24.45
2023-04-13T07:42:16.345Z,24.49
2023-04-13T07:44:21.416Z,24.5
2023-04-13T07:46:26.480Z,24.49
2023-04-13T07:48:31.581Z,24.48
2023-04-13T07:50:36.605Z,24.5
2023-04-13T07:52:41.711Z,24.51
2023-04-13T07:54:46.680Z,24.51
2023-04-13T07:56:51.690Z,24.55
2023-04-13T07:58:56.763Z,24.54
2023-04-13T08:01:02.724Z,24.54
2023-04-13T08:03:07.892Z,24.53
2023-04-13T08:05:13.514Z,24.52
2023-04-13T08:07:19.192Z,24.51
2023-04-13T08:09:24.216Z,24.52
2023-04-13T08:11:29.277Z,24.51
2023-04-13T08:13:34.327Z,24.51
2023-04-13T08:15:39.393Z,24.5
2023-04-13T08:17:44.406Z,24.47
2023-04-13T08:19:49.606Z,24.47
2023-04-13T08:21:54.708Z,24.47
2023-04-13T08:23:59.769Z,24.47
2023-04-13T08:26:04.757Z,24.47
2023-04-13T08:28:09.801Z,24.48
2023-04-13T08:30:14.833Z,24.49
2023-04-13T08:32:20.017Z,24.5
2023-04-13T08:34:25.258Z,24.5
2023-04-13T08:36:30.251Z,24.48
2023-04-13T08:38:36.643Z,24.5
2023-04-13T08:40:42.144Z,24.5
2023-04-13T08:42:47.172Z,24.49
2023-04-13T08:44:52.313Z,24.5
2023-04-13T08:46:57.356Z,24.48
2023-04-13T08:49:02.361Z,24.5
2023-04-13T08:51:07.419Z,24.5
2023-04-13T08:53:12.403Z,24.5
2023-04-13T08:55:17.396Z,24.51
2023-04-13T08:57:22.381Z,24.51
2023-04-13T08:59:27.519Z,24.52
2023-04-13T09:01:32.563Z,24.51
2023-04-13T09:03:38.004Z,24.52
2023-04-13T09:05:43.702Z,24.52
2023-04-13T09:07:48.811Z,24.52
2023-04-13T09:09:53.842Z,24.53
2023-04-13T09:11:58.910Z,24.52
2023-04-13T09:14:03.866Z,24.54
2023-04-13T09:16:08.913Z,24.53
2023-04-13T09:18:13.948Z,24.55
2023-04-13T09:20:19.066Z,24.58
2023-04-13T09:22:24.416Z,24.57
2023-04-13T09:24:29.392Z,24.57
2023-04-13T09:26:34.400Z,24.56
2023-04-13T09:28:39.374Z,24.58
2023-04-13T09:30:44.397Z,24.58
2023-04-13T09:32:49.674Z,24.58
2023-04-13T09:34:54.861Z,24.58
2023-04-13T09:37:01.739Z,24.58
2023-04-13T09:39:06.991Z,24.58
2023-04-13T09:41:11.977Z,24.57
2023-04-13T09:43:17.008Z,24.58
2023-04-13T09:45:22.124Z,24.58
2023-04-13T09:47:27.136Z,24.58
2023-04-13T09:49:32.265Z,24.58
2023-04-13T09:51:37.602Z,24.59
2023-04-13T09:53:42.662Z,24.58
2023-04-13T09:55:47.673Z,24.58
2023-04-13T09:57:52.649Z,24.58
2023-04-13T09:59:57.681Z,24.58
2023-04-13T10:02:02.778Z,24.59
2023-04-13T10:04:08.089Z,24.59
2023-04-13T10:06:13.122Z,24.58
2023-04-13T10:08:21.981Z,24.59
2023-04-13T10:10:41.173Z,24.59
2023-04-13T10:12:46.240Z,24.59
2023-04-13T10:14:51.230Z,24.6
2023-04-13T10:16:56.359Z,24.61
2023-04-13T10:19:01.604Z,24.61
2023-04-13T10:21:06.937Z,24.61
2023-04-13T10:23:11.915Z,24.61
2023-04-13T10:25:29.468Z,24.61
2023-04-13T10:27:42.317Z,24.6
2023-04-13T10:29:47.441Z,24.63
2023-04-13T10:31:52.485Z,24.64
2023-04-13T10:33:57.678Z,24.63
2023-04-13T10:36:03.041Z,24.62
2023-04-13T10:38:08.143Z,24.61
2023-04-13T10:40:13.164Z,24.61
2023-04-13T10:42:18.375Z,24.6
2023-04-13T10:44:23.548Z,24.59
2023-04-13T10:46:28.577Z,24.6
2023-04-13T10:48:33.832Z,24.62
2023-04-13T10:50:38.841Z,24.61
2023-04-13T10:52:43.865Z,24.62
2023-04-13T10:54:48.860Z,24.65
2023-04-13T10:56:53.872Z,24.66
2023-04-13T10:58:59.116Z,24.66
2023-04-13T11:01:04.656Z,24.64
2023-04-13T11:03:09.787Z,24.63
2023-04-13T11:05:15.532Z,24.63
2023-04-13T11:07:20.623Z,24.63
2023-04-13T11:09:25.638Z,24.65
2023-04-13T11:11:30.625Z,24.65
2023-04-13T11:13:35.720Z,24.66
2023-04-13T11:15:40.732Z,24.66
2023-04-13T11:17:45.841Z,24.65
2023-04-13T11:19:51.080Z,24.66
2023-04-13T11:21:56.232Z,24.67
2023-04-13T11:24:01.207Z,24.67
2023-04-13T11:26:06.536Z,24.68
2023-04-13T11:28:11.544Z,24.68
2023-04-13T11:30:16.538Z,24.67
2023-04-13T11:32:21.654Z,24.67
2023-04-13T11:34:26.974Z,24.68
2023-04-13T11:36:31.991Z,24.68
2023-04-13T11:38:37.014Z,24.7
2023-04-13T11:40:41.987Z,24.75
2023-04-13T11:42:47.010Z,24.77
2023-04-13T11:44:52.129Z,24.8
2023-04-13T11:46:57.250Z,24.79
2023-04-13T11:49:02.337Z,24.78
2023-04-13T11:51:07.454Z,24.75
2023-04-13T11:53:12.485Z,24.76
2023-04-13T11:55:22.818Z,24.75
2023-04-13T11:57:28.610Z,24.74
2023-04-13T11:59:33.669Z,24.75
2023-04-13T12:01:44.968Z,24.75
2023-04-13T12:04:15.268Z,24.76
2023-04-13T12:06:22.008Z,24.77
2023-04-13T12:08:28.354Z,24.79
2023-04-13T12:15:43.836Z,24.79
2023-04-13T12:18:23.465Z,24.8
2023-04-13T12:20:40.327Z,24.78
2023-04-13T12:22:54.591Z,24.81
2023-04-13T12:25:15.228Z,24.83
2023-04-13T12:27:23.243Z,24.83
2023-04-13T12:29:29.322Z,24.82
2023-04-13T12:31:34.402Z,24.83
2023-04-13T12:33:39.571Z,24.82
2023-04-13T12:35:44.690Z,24.83
2023-04-13T12:37:49.679Z,24.82
2023-04-13T12:39:54.875Z,24.82
2023-04-13T12:41:59.943Z,24.81
2023-04-13T12:44:05.048Z,24.82
2023-04-13T12:46:10.221Z,24.83
2023-04-13T12:48:15.281Z,24.83
2023-04-13T12:50:20.425Z,24.84
2023-04-13T12:52:25.476Z,24.85
2023-04-13T12:54:30.475Z,24.85
2023-04-13T12:56:35.603Z,24.87
2023-04-13T12:58:40.665Z,24.91
2023-04-13T13:00:45.697Z,24.93
2023-04-13T13:02:56.500Z,24.9
2023-04-13T13:05:18.681Z,24.91
2023-04-13T13:07:23.760Z,24.88
2023-04-13T13:09:28.762Z,24.92
2023-04-13T13:11:33.727Z,24.92
2023-04-13T13:13:38.752Z,24.94
2023-04-13T13:15:43.746Z,24.95
2023-04-13T13:17:48.805Z,24.95
2023-04-13T13:19:54.023Z,24.95
2023-04-13T13:21:59.071Z,24.95
2023-04-13T13:24:04.059Z,25.01
2023-04-13T13:28:23.248Z,25.04
2023-04-13T13:30:28.289Z,25.04
2023-04-13T13:32:33.468Z,25.06
2023-04-13T13:34:39.231Z,25.08
2023-04-13T13:36:44.277Z,25.08
2023-04-13T13:38:49.389Z,25.09
2023-04-13T13:40:54.663Z,25.09
2023-04-13T13:42:59.726Z,25.13
2023-04-13T13:45:04.728Z,25.11
2023-04-13T13:47:10.042Z,25.17
2023-04-13T13:49:15.042Z,25.19
2023-04-13T13:51:20.038Z,25.24
2023-04-13T13:53:25.052Z,25.26
2023-04-13T13:55:30.092Z,25.29
2023-04-13T13:57:35.260Z,25.36
2023-04-13T13:59:40.370Z,25.44
2023-04-13T14:01:45.477Z,25.52
2023-04-13T14:03:50.861Z,25.54
2023-04-13T14:05:56.174Z,25.56
2023-04-13T14:08:01.227Z,25.53
2023-04-13T14:10:06.284Z,25.57
2023-04-13T14:12:11.395Z,25.6
2023-04-13T14:14:21.553Z,25.61
2023-04-13T14:16:27.365Z,25.62
2023-04-13T14:18:32.648Z,25.6
2023-04-13T14:20:37.860Z,25.6
2023-04-13T14:22:43.708Z,25.58
2023-04-13T14:24:48.730Z,25.6
2023-04-13T14:26:53.833Z,25.6
2023-04-13T14:28:59.135Z,25.6
2023-04-13T14:31:04.614Z,25.6
2023-04-13T14:33:09.857Z,25.57
2023-04-13T14:35:15.072Z,25.58
2023-04-13T14:37:20.067Z,25.61
2023-04-13T14:39:25.064Z,25.61
2023-04-13T14:41:30.246Z,25.59
2023-04-13T14:43:35.287Z,25.58
2023-04-13T14:45:40.350Z,25.58
2023-04-13T14:47:45.578Z,25.58
2023-04-13T14:49:51.122Z,25.58
2023-04-13T14:51:56.241Z,25.58
2023-04-13T14:54:01.481Z,25.6
2023-04-13T14:56:06.611Z,25.62
2023-04-13T14:58:11.611Z,25.63
2023-04-13T15:00:16.746Z,25.63
2023-04-13T15:02:21.958Z,25.62
2023-04-13T15:04:27.916Z,25.6
2023-04-13T15:06:34.102Z,25.61
2023-04-13T15:08:39.227Z,25.6
2023-04-13T15:10:44.455Z,25.61
2023-04-13T15:12:49.629Z,25.57
2023-04-13T15:14:54.853Z,25.6
2023-04-13T15:16:59.987Z,25.61
2023-04-13T15:19:05.346Z,25.62
2023-04-13T15:21:10.400Z,25.66
2023-04-13T15:23:16.780Z,25.67
2023-04-13T15:25:24.022Z,25.69
2023-04-13T15:27:29.423Z,25.7
2023-04-13T15:29:34.638Z,25.71
2023-04-13T15:31:39.738Z,25.71
2023-04-13T15:33:44.937Z,25.72
2023-04-13T15:35:50.047Z,25.71
2023-04-13T15:37:55.085Z,25.73
2023-04-13T15:40:00.253Z,25.73
2023-04-13T15:42:05.562Z,25.75
2023-04-13T15:44:10.576Z,25.76
2023-04-13T15:46:15.656Z,25.78
2023-04-13T15:48:20.894Z,25.78
2023-04-13T15:50:25.878Z,25.79
2023-04-13T15:52:30.961Z,25.81
2023-04-13T15:54:36.090Z,25.83
2023-04-13T15:56:41.161Z,25.8
2023-04-13T15:58:46.165Z,25.81
2023-04-13T16:00:51.279Z,25.81
2023-04-13T16:02:56.449Z,25.82
2023-04-13T16:05:02.087Z,25.84
2023-04-13T16:07:13.370Z,25.84
2023-04-13T16:09:20.975Z,25.84
2023-04-13T16:11:26.008Z,25.83
2023-04-13T16:13:41.335Z,25.82
2023-04-13T16:15:54.024Z,25.84
2023-04-13T16:17:59.198Z,25.86
2023-04-13T16:20:04.478Z,25.89
2023-04-13T16:22:09.633Z,25.92
2023-04-13T16:24:14.676Z,25.93
2023-04-13T16:26:19.700Z,25.95
2023-04-13T16:28:24.679Z,25.9
2023-04-13T16:30:29.806Z,25.9
2023-04-13T16:32:35.071Z,25.89
2023-04-13T16:34:40.329Z,25.89
2023-04-13T16:36:45.532Z,25.91
2023-04-13T16:38:50.612Z,25.94
2023-04-13T16:40:55.570Z,26
2023-04-13T16:43:00.671Z,26.03
2023-04-13T16:45:05.686Z,26.06
2023-04-13T16:47:10.749Z,26.06
2023-04-13T16:49:15.866Z,26.09
2023-04-13T16:51:20.854Z,26.1
2023-04-13T16:53:25.859Z,26.11
2023-04-13T16:55:30.783Z,26.13
2023-04-13T16:57:35.772Z,26.12
2023-04-13T16:59:40.949Z,26.15
2023-04-13T17:01:46.024Z,26.14
2023-04-13T17:03:51.145Z,26.14
2023-04-13T17:05:56.566Z,26.14
2023-04-13T17:08:01.760Z,26.14
2023-04-13T17:10:06.876Z,26.16
2023-04-13T17:12:11.912Z,26.13
2023-04-13T17:14:16.902Z,26.16
2023-04-13T17:16:21.943Z,26.13
2023-04-13T17:18:27.119Z,26.18
2023-04-13T17:20:32.213Z,26.24
2023-04-13T17:22:37.187Z,26.28
2023-04-13T17:24:42.190Z,26.28
2023-04-13T17:26:47.152Z,26.28
2023-04-13T17:28:52.160Z,26.26
2023-04-13T17:30:57.123Z,26.29
2023-04-13T17:33:02.064Z,26.3
2023-04-13T17:35:07.305Z,26.37
2023-04-13T17:37:12.295Z,26.43
2023-04-13T17:39:17.315Z,26.39
2023-04-13T17:41:22.331Z,26.42
2023-04-13T17:43:27.373Z,26.44
2023-04-13T17:45:32.398Z,26.44
2023-04-13T17:47:37.508Z,26.42
2023-04-13T17:49:42.632Z,26.43
2023-04-13T17:51:47.744Z,26.43
2023-04-13T17:53:52.828Z,26.45
2023-04-13T17:55:57.919Z,26.46
2023-04-13T17:58:02.915Z,26.47
2023-04-13T18:00:07.990Z,26.5
2023-04-13T18:02:13.086Z,26.54
2023-04-13T18:04:18.550Z,26.46
2023-04-13T18:06:24.146Z,26.33
2023-04-13T18:08:29.120Z,26.26
2023-04-13T18:10:34.156Z,26.15
2023-04-13T18:12:39.308Z,26.11
2023-04-13T18:14:44.384Z,26.06
2023-04-13T18:16:49.485Z,26.03
2023-04-13T18:18:54.470Z,26.03
2023-04-13T18:20:59.492Z,26.04
2023-04-13T18:23:04.570Z,26.02
2023-04-13T18:25:09.726Z,26.03
2023-04-13T18:27:14.871Z,26
2023-04-13T18:29:19.950Z,26.01
2023-04-13T18:31:24.974Z,25.99
2023-04-13T18:33:30.190Z,25.96
2023-04-13T18:35:35.261Z,25.96
2023-04-13T18:37:40.326Z,25.94
2023-04-13T18:39:45.325Z,25.94
2023-04-13T18:41:50.433Z,25.9
2023-04-13T18:43:55.461Z,25.87
2023-04-13T18:46:00.963Z,25.82
2023-04-13T18:48:06.189Z,25.84
2023-04-13T18:50:11.328Z,25.85
2023-04-13T18:52:16.343Z,25.85
2023-04-13T18:54:21.340Z,25.84
2023-04-13T18:56:26.374Z,25.85
2023-04-13T18:58:31.388Z,25.85
2023-04-13T19:00:36.394Z,25.83
2023-04-13T19:02:41.572Z,25.83
2023-04-13T19:04:47.321Z,25.82
2023-04-13T19:06:52.766Z,25.76
2023-04-13T19:08:57.910Z,25.78
2023-04-13T19:11:02.942Z,25.79
2023-04-13T19:13:07.952Z,25.8
2023-04-13T19:15:13.064Z,25.78
2023-04-13T19:17:18.159Z,25.77
2023-04-13T19:19:23.189Z,25.76
2023-04-13T19:21:28.279Z,25.78
2023-04-13T19:23:33.276Z,25.8
2023-04-13T19:25:41.563Z,25.81
2023-04-13T19:27:46.593Z,25.82
2023-04-13T19:29:51.625Z,25.79
2023-04-13T19:31:56.713Z,25.78
2023-04-13T19:34:02.146Z,25.77
2023-04-13T19:36:07.456Z,25.75
2023-04-13T19:38:12.431Z,25.75
2023-04-13T19:40:17.518Z,25.74
2023-04-13T19:42:22.539Z,25.68
2023-04-13T19:44:27.531Z,25.62
2023-04-13T19:46:32.636Z,25.6
2023-04-13T19:48:37.804Z,25.56
2023-04-13T19:50:42.804Z,25.53
2023-04-13T19:52:47.776Z,25.49
2023-04-13T19:54:52.848Z,25.44
2023-04-13T19:56:57.933Z,25.43
2023-04-13T19:59:03.033Z,25.41
2023-04-13T20:01:08.186Z,25.41
2023-04-13T20:03:13.365Z,25.4
2023-04-13T20:05:18.774Z,25.4
2023-04-13T20:07:23.871Z,25.38
2023-04-13T20:09:29.316Z,25.38
2023-04-13T20:11:34.340Z,25.39
2023-04-13T20:13:39.376Z,25.38
2023-04-13T20:15:44.469Z,25.39
2023-04-13T20:17:49.753Z,25.37
2023-04-13T20:19:54.871Z,25.37
2023-04-13T20:21:59.841Z,25.36
2023-04-13T20:24:04.961Z,25.36
2023-04-13T20:26:09.983Z,25.35
2023-04-13T20:28:15.054Z,25.35
2023-04-13T20:30:20.040Z,25.34
2023-04-13T20:32:25.104Z,25.34
2023-04-13T20:34:30.288Z,25.33
2023-04-13T20:36:35.272Z,25.3
2023-04-13T20:38:40.324Z,25.3
2023-04-13T20:40:45.484Z,25.3
2023-04-13T20:42:50.493Z,25.31
2023-04-13T20:44:55.514Z,25.3
2023-04-13T20:47:00.713Z,25.32
2023-04-13T20:49:06.099Z,25.31
2023-04-13T20:51:11.151Z,25.3
2023-04-13T20:53:16.156Z,25.3
2023-04-13T20:55:21.312Z,25.3
2023-04-13T20:57:26.319Z,25.33
2023-04-13T20:59:31.374Z,25.32
2023-04-13T21:01:36.443Z,25.3
2023-04-13T21:03:41.805Z,25.27
2023-04-13T21:05:47.508Z,25.24
2023-04-13T21:07:52.469Z,25.21
2023-04-13T21:10:00.377Z,25.18
2023-04-13T21:12:05.368Z,25.16
2023-04-13T21:14:10.356Z,25.13
2023-04-13T21:16:15.392Z,25.08
2023-04-13T21:18:20.612Z,25.06
2023-04-13T21:20:25.745Z,25.04
2023-04-13T21:22:30.768Z,25.03
2023-04-13T21:24:35.807Z,25.02
2023-04-13T21:26:40.938Z,25
2023-04-13T21:28:45.917Z,24.98
2023-04-13T21:30:51.014Z,24.96
2023-04-13T21:32:56.052Z,24.94
2023-04-13T21:35:01.490Z,24.92
2023-04-13T21:37:06.540Z,24.92
2023-04-13T21:39:11.526Z,24.9
2023-04-13T21:41:16.564Z,24.87
2023-04-13T21:43:21.629Z,24.86
2023-04-13T21:45:26.762Z,24.85
2023-04-13T21:47:31.839Z,24.84
2023-04-13T21:49:36.932Z,24.82
2023-04-13T21:51:41.937Z,24.81
2023-04-13T21:53:46.976Z,24.81
2023-04-13T21:55:51.943Z,24.79
2023-04-13T21:57:57.033Z,24.77
2023-04-13T22:00:03.341Z,24.75
2023-04-13T22:02:10.629Z,24.74
2023-04-13T22:04:15.982Z,24.74
2023-04-13T22:06:21.382Z,24.73
2023-04-13T22:08:26.412Z,24.71
2023-04-13T22:10:31.492Z,24.7
2023-04-13T22:12:36.528Z,24.7
2023-04-13T22:14:41.590Z,24.7
2023-04-13T22:16:48.408Z,24.69
2023-04-13T22:18:53.723Z,24.68
2023-04-13T22:20:58.706Z,24.67
2023-04-13T22:23:03.785Z,24.66
2023-04-13T22:25:08.843Z,24.65
2023-04-13T22:27:13.975Z,24.64
2023-04-13T22:29:18.930Z,24.64
2023-04-13T22:31:23.981Z,24.62
2023-04-13T22:33:29.214Z,24.61
2023-04-13T22:35:34.586Z,24.62
2023-04-13T22:37:39.623Z,24.6
2023-04-13T22:39:44.624Z,24.6
2023-04-13T22:41:49.789Z,24.59
2023-04-13T22:43:54.808Z,24.58
2023-04-13T22:45:59.820Z,24.57
2023-04-13T22:48:05.114Z,24.56
2023-04-13T22:50:10.488Z,24.55
2023-04-13T22:52:15.604Z,24.54
2023-04-13T22:54:20.586Z,24.54
2023-04-13T22:56:25.549Z,24.54
2023-04-13T22:58:30.542Z,24.54
2023-04-13T23:00:35.512Z,24.53
2023-04-13T23:02:40.843Z,24.54
2023-04-13T23:04:46.650Z,24.54
2023-04-13T23:06:52.095Z,24.54
2023-04-13T23:08:57.235Z,24.54
2023-04-13T23:11:03.054Z,24.53
2023-04-13T23:13:08.050Z,24.53
2023-04-13T23:15:13.055Z,24.53
2023-04-13T23:17:18.048Z,24.52
2023-04-13T23:19:23.226Z,24.51
2023-04-13T23:21:28.225Z,24.49
2023-04-13T23:23:33.205Z,24.48
2023-04-13T23:25:38.325Z,24.48
2023-04-13T23:27:43.318Z,24.48
2023-04-13T23:29:48.326Z,24.47
2023-04-13T23:31:53.341Z,24.46
2023-04-13T23:33:58.742Z,24.45
2023-04-13T23:36:03.726Z,24.46
2023-04-13T23:38:08.794Z,24.43
2023-04-13T23:40:13.807Z,24.44
2023-04-13T23:42:19.065Z,24.44
2023-04-13T23:44:24.304Z,24.44
2023-04-13T23:46:29.320Z,24.41
2023-04-13T23:48:34.305Z,24.43
2023-04-13T23:50:39.330Z,24.4
2023-04-13T23:52:44.305Z,24.39
2023-04-13T23:54:49.309Z,24.39
2023-04-13T23:56:54.313Z,24.39
2023-04-13T23:58:59.536Z,24.41
